Loyall, Kentucky
Current Conditions -  °F | °C
As of 5:35 AM on Thursday 27 Nov 2014 (Local Time) from KI35 Reporting Station
Overcast Overcast  
Wind Chill: 34°   Ceiling: 300
Heat Index: 34°   Visibility: 7mi
Dew Point: 34°   Wind: 3mph
Humidity: 100%   Direction: 250°WSW
Pressure: 30.02"   Gusts: NA
Location:  36.85°N, 83.35°W
Report Text: KI35 271035Z AUTO 25003KT 7SM BKN003 BKN008 OVC012 01/01 A3002 RMK AO1
Loading
Personal Weather Stations






























Interactive Weather Map New forecast layout! Learn more

10-Day Weather Forecast

Advertisements
Track Severe Weather on mobile